Time;durP1;ratioP1;P1;durP2;ratioP2;P2;SDS_P1;SDS_P2;PMS_P1;PMS_P2;Temp;Humidity;BMP_temperature;BMP_pressure;BME280_temperature;BME280_humidity;BME280_pressure;Samples;Min_cycle;Max_cycle;Signal;HPM_P1;HPM_P2
2022/10/30 00:00:55;;;;;;;0.20;0.20;;;14.50;99.90;;;;;;5081269;28;20115;-73
2022/10/30 00:03:21;;;;;;;0.20;0.20;;;14.50;99.90;;;;;;5073208;28;20087;-73
2022/10/30 00:05:48;;;;;;;0.20;0.20;;;14.50;99.90;;;;;;5077855;28;20056;-74
2022/10/30 00:08:16;;;;;;;0.20;0.20;;;14.40;99.90;;;;;;5079562;28;20391;-74
2022/10/30 00:10:43;;;;;;;0.20;0.20;;;14.40;99.90;;;;;;5081011;28;20048;-73
2022/10/30 00:13:09;;;;;;;0.20;0.20;;;14.30;99.90;;;;;;5076164;28;20521;-73
2022/10/30 00:15:35;;;;;;;0.20;0.20;;;14.30;99.90;;;;;;5075111;28;20042;-73
2022/10/30 00:18:01;;;;;;;0.20;0.20;;;14.30;99.90;;;;;;5078027;28;20040;-73
2022/10/30 00:20:27;;;;;;;0.20;0.20;;;14.30;99.90;;;;;;5076629;28;20036;-73
2022/10/30 00:22:53;;;;;;;0.20;0.20;;;14.20;99.90;;;;;;5085281;28;20401;-74
2022/10/30 00:25:18;;;;;;;0.20;0.20;;;14.20;99.90;;;;;;5073661;28;20116;-73
2022/10/30 00:27:44;;;;;;;0.10;0.10;;;14.30;99.90;;;;;;5079205;28;20525;-73
2022/10/30 00:30:10;;;;;;;0.10;0.10;;;14.20;99.90;;;;;;5073987;28;20053;-73
2022/10/30 00:32:36;;;;;;;0.20;0.20;;;14.20;99.90;;;;;;5075015;28;20041;-73
2022/10/30 00:35:02;;;;;;;0.20;0.20;;;14.10;99.90;;;;;;5086645;28;20039;-73
2022/10/30 00:37:28;;;;;;;0.20;0.20;;;14.10;99.90;;;;;;5080184;28;20067;-73
2022/10/30 00:39:53;;;;;;;0.20;0.20;;;14.10;99.90;;;;;;5074397;28;20036;-74
2022/10/30 00:42:19;;;;;;;0.20;0.20;;;14.10;99.90;;;;;;5081818;28;20461;-73
2022/10/30 00:44:46;;;;;;;0.20;0.20;;;14.10;99.90;;;;;;5081861;28;20043;-73
2022/10/30 00:47:23;;;;;;;0.20;0.20;;;14.10;99.90;;;;;;5088442;28;20040;-73
2022/10/30 00:50:00;;;;;;;0.10;0.10;;;14.10;99.90;;;;;;5082064;28;20100;-74
2022/10/30 00:52:30;;;;;;;0.20;0.20;;;14.10;99.90;;;;;;5089770;28;20040;-74
2022/10/30 00:54:57;;;;;;;0.20;0.20;;;14.10;99.90;;;;;;5077956;28;20044;-74
2022/10/30 00:57:25;;;;;;;0.20;0.20;;;14.20;99.90;;;;;;5084160;28;20056;-74
2022/10/30 00:59:51;;;;;;;0.10;0.10;;;14.10;99.90;;;;;;5085144;28;20399;-73
2022/10/30 01:02:18;;;;;;;0.10;0.10;;;14.20;99.90;;;;;;5086095;28;20055;-73
2022/10/30 01:04:46;;;;;;;0.10;0.10;;;14.10;99.90;;;;;;5079406;28;20400;-73
2022/10/30 01:07:14;;;;;;;0.20;0.20;;;14.10;99.90;;;;;;5075281;28;20041;-73
2022/10/30 01:09:40;;;;;;;0.15;0.15;;;14.20;99.90;;;;;;5069963;28;20041;-74
2022/10/30 01:12:06;;;;;;;0.20;0.20;;;14.10;99.90;;;;;;5070293;28;20365;-73
2022/10/30 01:14:36;;;;;;;0.10;0.10;;;14.20;99.90;;;;;;5070142;28;20055;-74
2022/10/30 01:17:26;;;;;;;0.20;0.20;;;14.10;99.90;;;;;;5082419;28;20416;-74
2022/10/30 01:20:27;;;;;;;0.20;0.20;;;14.10;99.90;;;;;;5084238;28;20048;-74
2022/10/30 01:23:20;;;;;;;0.20;0.20;;;14.10;99.90;;;;;;5089379;28;20054;-73
2022/10/30 01:25:50;;;;;;;0.20;0.20;;;14.10;99.90;;;;;;5072860;28;20044;-73
2022/10/30 01:28:24;;;;;;;0.20;0.20;;;14.10;99.90;;;;;;5081432;28;20147;-73
2022/10/30 01:31:22;;;;;;;0.10;0.10;;;14.10;99.90;;;;;;5077364;28;20140;-73
2022/10/30 01:34:21;;;;;;;0.20;0.20;;;14.00;99.90;;;;;;5043432;28;20060;-73
2022/10/30 01:37:00;;;;;;;0.15;0.15;;;14.00;99.90;;;;;;5072593;28;20060;-74
2022/10/30 01:39:30;;;;;;;0.20;0.20;;;14.00;99.90;;;;;;5079351;28;20390;-73
2022/10/30 01:41:56;;;;;;;0.10;0.10;;;14.00;99.90;;;;;;5069912;28;20043;-73
2022/10/30 01:44:27;;;;;;;0.10;0.10;;;13.90;99.90;;;;;;5067513;28;20390;-74
2022/10/30 01:47:11;;;;;;;;;;;14.00;99.90;;;;;;5085804;28;20052;-74
2022/10/30 01:50:07;;;;;;;0.20;0.20;;;13.90;99.90;;;;;;5075385;28;19920;-73
2022/10/30 01:52:54;;;;;;;0.20;0.20;;;13.90;99.90;;;;;;5080282;28;20054;-73
2022/10/30 01:55:51;;;;;;;0.20;0.20;;;13.90;99.90;;;;;;5073746;28;20048;-74
2022/10/30 01:58:20;;;;;;;0.20;0.20;;;13.90;99.90;;;;;;5076145;28;20044;-73
2022/10/30 02:00:51;;;;;;;0.20;0.20;;;13.90;99.90;;;;;;5086824;28;20364;-73
2022/10/30 02:03:17;;;;;;;0.10;0.10;;;13.90;99.90;;;;;;5082594;28;20660;-74
2022/10/30 02:05:47;;;;;;;0.20;0.20;;;14.00;99.90;;;;;;5082049;28;20387;-74
2022/10/30 02:08:13;;;;;;;0.20;0.20;;;13.90;99.90;;;;;;5070837;28;21394;-73
2022/10/30 02:10:41;;;;;;;0.20;0.20;;;13.90;99.90;;;;;;5080479;28;20033;-74
2022/10/30 02:13:06;;;;;;;0.20;0.20;;;13.90;99.90;;;;;;5076635;28;20047;-74
2022/10/30 02:15:32;;;;;;;0.20;0.20;;;14.00;99.90;;;;;;5077005;28;20394;-74
2022/10/30 02:17:58;;;;;;;0.10;0.10;;;13.90;99.90;;;;;;5067775;28;20166;-73
2022/10/30 02:20:25;;;;;;;0.10;0.10;;;14.00;99.90;;;;;;5079444;28;20506;-73
2022/10/30 02:22:50;;;;;;;0.20;0.20;;;13.90;99.90;;;;;;5082527;28;20391;-73
2022/10/30 02:25:16;;;;;;;0.10;0.10;;;13.90;99.90;;;;;;5087103;28;20036;-74
2022/10/30 02:27:42;;;;;;;0.20;0.20;;;13.90;99.90;;;;;;5086563;28;20055;-73
2022/10/30 02:30:08;;;;;;;0.20;0.20;;;13.90;99.90;;;;;;5084004;28;20482;-73
2022/10/30 02:32:34;;;;;;;0.10;0.10;;;13.90;99.90;;;;;;5072090;28;20046;-73
2022/10/30 02:35:00;;;;;;;0.10;0.10;;;14.00;99.90;;;;;;5079687;28;20467;-73
2022/10/30 02:37:26;;;;;;;0.20;0.20;;;14.00;99.90;;;;;;5075803;28;20085;-73
2022/10/30 02:39:52;;;;;;;0.10;0.10;;;14.10;99.90;;;;;;5068792;28;20083;-73
2022/10/30 02:42:17;;;;;;;0.20;0.20;;;14.40;99.90;;;;;;5076209;28;20132;-73
2022/10/30 02:44:43;;;;;;;0.20;0.20;;;14.00;99.90;;;;;;5077367;28;20056;-73
2022/10/30 02:47:09;;;;;;;0.10;0.10;;;13.90;99.90;;;;;;5073951;28;20491;-73
2022/10/30 02:49:35;;;;;;;0.10;0.10;;;14.00;99.90;;;;;;5078027;28;20040;-74
2022/10/30 02:52:00;;;;;;;0.20;0.20;;;13.90;99.90;;;;;;5072506;28;20442;-74
2022/10/30 02:54:26;;;;;;;0.10;0.10;;;14.00;99.90;;;;;;5077188;28;20036;-74
2022/10/30 02:56:51;;;;;;;0.20;0.20;;;13.90;99.90;;;;;;5076924;28;20109;-74
2022/10/30 02:59:18;;;;;;;0.20;0.20;;;14.00;99.90;;;;;;5078601;28;20123;-74
2022/10/30 03:01:43;;;;;;;0.20;0.20;;;14.00;99.90;;;;;;5080586;28;20454;-74
2022/10/30 03:04:09;;;;;;;0.20;0.20;;;13.90;99.90;;;;;;5078361;28;20056;-74
2022/10/30 03:06:35;;;;;;;0.13;0.13;;;13.90;99.90;;;;;;5069694;28;20079;-73
2022/10/30 03:09:00;;;;;;;0.20;0.20;;;13.90;99.90;;;;;;5084044;28;20047;-73
2022/10/30 03:11:26;;;;;;;0.10;0.10;;;13.90;99.90;;;;;;5071005;28;20063;-74
2022/10/30 03:13:52;;;;;;;0.17;0.17;;;13.90;99.90;;;;;;5074147;28;20050;-74
2022/10/30 03:16:21;;;;;;;0.20;0.20;;;13.80;99.90;;;;;;5074659;28;20676;-74
2022/10/30 03:18:47;;;;;;;0.20;0.20;;;13.90;99.90;;;;;;5072259;28;20051;-73
2022/10/30 03:21:16;;;;;;;0.10;0.10;;;13.90;99.90;;;;;;5076854;28;20058;-73
2022/10/30 03:23:42;;;;;;;0.20;0.20;;;13.90;99.90;;;;;;5066721;28;20078;-74
2022/10/30 03:26:08;;;;;;;0.20;0.20;;;13.90;99.90;;;;;;5072036;28;20155;-74
2022/10/30 03:28:34;;;;;;;0.20;0.20;;;13.80;99.90;;;;;;5068675;28;20848;-73
2022/10/30 03:31:11;;;;;;;0.10;0.10;;;13.90;99.90;;;;;;5073095;28;20085;-73
2022/10/30 03:33:37;;;;;;;0.20;0.20;;;13.90;99.90;;;;;;5074710;28;20044;-73
2022/10/30 03:36:04;;;;;;;0.13;0.13;;;13.90;99.90;;;;;;5071297;28;20080;-73
2022/10/30 03:38:30;;;;;;;0.10;0.10;;;13.90;99.90;;;;;;5072929;28;20119;-73
2022/10/30 03:40:56;;;;;;;0.20;0.20;;;13.90;99.90;;;;;;5097172;28;20562;-73
2022/10/30 03:43:21;;;;;;;0.10;0.10;;;13.90;99.90;;;;;;5070936;28;20707;-73
2022/10/30 03:45:49;;;;;;;0.15;0.15;;;13.90;99.90;;;;;;5071461;28;20063;-74
2022/10/30 03:48:15;;;;;;;0.17;0.17;;;14.00;99.90;;;;;;5085284;28;20043;-74
2022/10/30 03:50:41;;;;;;;0.20;0.20;;;14.00;99.90;;;;;;5095790;28;20043;-74
2022/10/30 03:53:07;;;;;;;0.20;0.20;;;14.00;99.90;;;;;;5079347;28;20074;-74
2022/10/30 03:55:32;;;;;;;0.10;0.10;;;14.00;99.90;;;;;;5078204;28;20056;-73
2022/10/30 03:57:58;;;;;;;0.20;0.20;;;14.10;99.90;;;;;;5084327;28;20075;-73
2022/10/30 04:00:23;;;;;;;0.20;0.20;;;14.10;99.90;;;;;;5077399;28;20044;-74
2022/10/30 04:02:51;;;;;;;0.20;0.20;;;14.20;99.90;;;;;;5084589;28;20444;-74
2022/10/30 04:05:21;;;;;;;0.10;0.10;;;14.10;99.90;;;;;;5073693;28;20060;-73
2022/10/30 04:07:47;;;;;;;0.10;0.10;;;14.10;99.90;;;;;;5088324;28;20054;-73
2022/10/30 04:10:14;;;;;;;0.10;0.10;;;14.10;99.90;;;;;;5092460;28;20079;-73
2022/10/30 04:12:40;;;;;;;0.20;0.20;;;14.10;99.90;;;;;;5079254;28;20048;-74
2022/10/30 04:15:07;;;;;;;0.20;0.20;;;14.20;99.90;;;;;;5086028;28;20029;-74
2022/10/30 04:17:34;;;;;;;0.10;0.10;;;14.20;99.90;;;;;;5080430;28;20421;-75
2022/10/30 04:19:59;;;;;;;0.20;0.20;;;14.20;99.90;;;;;;5073367;28;20044;-74
2022/10/30 04:22:25;;;;;;;0.20;0.20;;;14.20;99.90;;;;;;5081013;28;20124;-74
2022/10/30 04:24:52;;;;;;;0.10;0.10;;;14.10;99.90;;;;;;5088116;28;20135;-74
2022/10/30 04:27:19;;;;;;;0.10;0.10;;;14.10;99.90;;;;;;5079791;28;20056;-74
2022/10/30 04:29:45;;;;;;;0.20;0.20;;;14.30;99.90;;;;;;5087242;28;20091;-74
2022/10/30 04:32:11;;;;;;;0.20;0.20;;;14.20;99.90;;;;;;5074694;28;20084;-74
2022/10/30 04:34:38;;;;;;;0.20;0.20;;;14.20;99.90;;;;;;5077927;28;20051;-75
2022/10/30 04:37:07;;;;;;;0.20;0.20;;;14.30;99.90;;;;;;5077727;28;20105;-75
2022/10/30 04:39:32;;;;;;;0.20;0.20;;;14.40;99.90;;;;;;5080260;28;20040;-74
2022/10/30 04:41:58;;;;;;;0.20;0.20;;;14.30;99.90;;;;;;5083679;28;20040;-74
2022/10/30 04:44:24;;;;;;;0.20;0.20;;;14.30;99.90;;;;;;5074011;28;20048;-74
2022/10/30 04:46:49;;;;;;;0.10;0.10;;;14.40;99.90;;;;;;5081248;28;20040;-74
2022/10/30 04:49:15;;;;;;;0.10;0.10;;;14.30;99.90;;;;;;5079587;28;20109;-74
2022/10/30 04:51:40;;;;;;;0.10;0.10;;;14.30;99.90;;;;;;5104571;28;20107;-74
2022/10/30 04:54:06;;;;;;;0.20;0.20;;;14.40;99.90;;;;;;5092014;27;20040;-75
2022/10/30 04:56:32;;;;;;;0.30;0.30;;;14.30;99.90;;;;;;5071514;28;20544;-74
2022/10/30 04:58:58;;;;;;;0.20;0.20;;;14.30;99.90;;;;;;5074720;28;21275;-74
2022/10/30 05:01:24;;;;;;;0.17;0.17;;;14.30;99.90;;;;;;5083238;28;20040;-74
2022/10/30 05:03:49;;;;;;;0.20;0.20;;;14.30;99.90;;;;;;5075047;28;20687;-74
2022/10/30 05:06:18;;;;;;;0.10;0.10;;;14.40;99.90;;;;;;5074535;28;20548;-74
2022/10/30 05:08:43;;;;;;;0.10;0.10;;;14.30;99.90;;;;;;5074176;28;20059;-74
2022/10/30 05:11:09;;;;;;;0.10;0.10;;;14.20;99.90;;;;;;5069850;28;20044;-74
2022/10/30 05:13:35;;;;;;;0.20;0.20;;;14.30;99.90;;;;;;5070125;28;20044;-74
2022/10/30 05:16:00;;;;;;;0.20;0.20;;;14.20;99.90;;;;;;5085399;28;20047;-74
2022/10/30 05:18:26;;;;;;;0.10;0.10;;;14.20;99.90;;;;;;5076889;28;20048;-74
2022/10/30 05:20:51;;;;;;;0.20;0.20;;;14.20;99.90;;;;;;5089426;28;20066;-73
2022/10/30 05:23:17;;;;;;;0.17;0.17;;;14.20;99.90;;;;;;5085282;28;20048;-74
2022/10/30 05:25:42;;;;;;;0.20;0.20;;;14.10;99.90;;;;;;5086537;28;20040;-74
2022/10/30 05:28:09;;;;;;;0.20;0.20;;;14.10;99.90;;;;;;5086340;28;20135;-74
2022/10/30 05:30:35;;;;;;;0.15;0.15;;;14.10;99.90;;;;;;5073847;28;20106;-74
2022/10/30 05:33:08;;;;;;;0.10;0.10;;;14.10;99.90;;;;;;5074826;28;20043;-74
2022/10/30 05:35:34;;;;;;;0.13;0.13;;;14.00;99.90;;;;;;5086841;28;20051;-74
2022/10/30 05:38:02;;;;;;;0.15;0.15;;;14.00;99.90;;;;;;5079467;28;21759;-74
2022/10/30 05:40:27;;;;;;;0.20;0.20;;;14.00;99.90;;;;;;5073147;28;20117;-74
2022/10/30 05:42:53;;;;;;;0.10;0.10;;;13.90;99.90;;;;;;5069864;28;20071;-74
2022/10/30 05:45:19;;;;;;;0.20;0.20;;;13.90;99.90;;;;;;5081754;28;20449;-74
2022/10/30 05:48:03;;;;;;;0.20;0.20;;;13.90;99.90;;;;;;5087926;28;20044;-74
2022/10/30 05:50:29;;;;;;;0.15;0.15;;;13.80;99.90;;;;;;5076380;28;20043;-74
2022/10/30 05:52:56;;;;;;;0.10;0.10;;;13.80;99.90;;;;;;5078951;28;20059;-74
2022/10/30 05:55:22;;;;;;;0.13;0.13;;;13.70;99.90;;;;;;5069916;28;20052;-74
2022/10/30 05:57:47;;;;;;;0.10;0.10;;;13.70;99.90;;;;;;5083961;28;20718;-74
2022/10/30 06:00:14;;;;;;;0.10;0.10;;;13.70;99.90;;;;;;5087485;28;20512;-73
2022/10/30 06:02:39;;;;;;;0.20;0.20;;;13.60;99.90;;;;;;5068718;28;20032;-74
2022/10/30 06:05:05;;;;;;;0.20;0.20;;;13.60;99.90;;;;;;5083846;28;20036;-74
2022/10/30 06:07:31;;;;;;;0.10;0.10;;;13.50;99.90;;;;;;5076129;28;20086;-74
2022/10/30 06:09:56;;;;;;;0.10;0.10;;;13.50;99.90;;;;;;5075520;28;20028;-74
2022/10/30 06:12:22;;;;;;;0.20;0.20;;;13.40;99.90;;;;;;5079436;28;20044;-74
2022/10/30 06:14:48;;;;;;;0.20;0.20;;;13.40;99.90;;;;;;5073233;28;20044;-74
2022/10/30 06:17:13;;;;;;;0.30;0.30;;;13.40;99.90;;;;;;5088673;28;20040;-74
2022/10/30 06:19:39;;;;;;;0.20;0.20;;;13.30;99.90;;;;;;5080752;28;20048;-74
2022/10/30 06:22:05;;;;;;;0.20;0.20;;;13.20;99.90;;;;;;5097773;28;20498;-74
2022/10/30 06:24:30;;;;;;;0.20;0.20;;;13.10;99.90;;;;;;5073820;28;20045;-74
2022/10/30 06:26:56;;;;;;;0.20;0.20;;;13.20;99.90;;;;;;5088791;28;20052;-74
2022/10/30 06:29:22;;;;;;;0.20;0.20;;;13.20;99.90;;;;;;5084137;28;20045;-74
2022/10/30 06:31:47;;;;;;;0.10;0.10;;;13.20;99.90;;;;;;5078437;28;20539;-74
2022/10/30 06:34:14;;;;;;;0.10;0.10;;;13.20;99.90;;;;;;5086748;28;20079;-74
2022/10/30 06:36:40;;;;;;;0.15;0.15;;;13.20;99.90;;;;;;5082534;28;20076;-74
2022/10/30 06:39:05;;;;;;;0.10;0.10;;;13.20;99.90;;;;;;5073806;28;20056;-74
2022/10/30 06:41:32;;;;;;;0.10;0.10;;;13.20;99.90;;;;;;5077867;28;20036;-74
2022/10/30 06:43:58;;;;;;;0.17;0.17;;;13.20;99.90;;;;;;5085461;28;20044;-74
2022/10/30 06:46:24;;;;;;;0.20;0.20;;;13.20;99.90;;;;;;5069015;28;20047;-74
2022/10/30 06:48:49;;;;;;;0.20;0.20;;;13.20;99.90;;;;;;5074463;28;20036;-74
2022/10/30 06:51:15;;;;;;;0.20;0.20;;;13.20;99.90;;;;;;5069336;28;20050;-74
2022/10/30 06:53:41;;;;;;;0.20;0.20;;;13.20;99.90;;;;;;5070966;28;20120;-74
2022/10/30 06:56:08;;;;;;;0.13;0.13;;;13.20;99.90;;;;;;5068325;28;20466;-73
2022/10/30 06:58:37;;;;;;;0.10;0.10;;;13.20;99.90;;;;;;5070333;28;20079;-74
2022/10/30 07:01:04;;;;;;;0.10;0.10;;;13.40;99.90;;;;;;5069541;28;20131;-74
2022/10/30 07:03:31;;;;;;;0.20;0.20;;;13.20;99.90;;;;;;5077593;28;20083;-74
2022/10/30 07:05:56;;;;;;;0.13;0.13;;;13.20;99.90;;;;;;5085850;28;20119;-74
2022/10/30 07:08:23;;;;;;;0.20;0.20;;;13.20;99.90;;;;;;5083476;28;20138;-74
2022/10/30 07:10:49;;;;;;;0.20;0.20;;;13.20;99.90;;;;;;5074426;28;20417;-75
2022/10/30 07:13:15;;;;;;;0.17;0.17;;;13.30;99.90;;;;;;5082516;28;20132;-74
2022/10/30 07:15:40;;;;;;;0.32;0.32;;;13.30;99.90;;;;;;5078966;28;20499;-75
2022/10/30 07:18:06;;;;;;;0.20;0.20;;;13.30;99.90;;;;;;5080768;28;20039;-74
2022/10/30 07:20:33;;;;;;;0.20;0.20;;;13.30;99.90;;;;;;5084822;28;20105;-74
2022/10/30 07:23:00;;;;;;;0.20;0.20;;;13.30;99.90;;;;;;5083811;28;20085;-75
2022/10/30 07:25:26;;;;;;;0.20;0.20;;;13.40;99.90;;;;;;5079956;28;20044;-74
2022/10/30 07:27:53;;;;;;;0.20;0.20;;;13.30;99.90;;;;;;5080306;28;20044;-74
2022/10/30 07:30:24;;;;;;;0.10;0.10;;;13.40;99.90;;;;;;5078614;28;20095;-74
2022/10/30 07:33:00;;;;;;;;;;;13.40;99.90;;;;;;5098193;28;20093;-75
2022/10/30 07:35:26;;;;;;;0.10;0.10;;;13.40;99.90;;;;;;5088994;28;19928;-75
2022/10/30 07:37:52;;;;;;;0.20;0.20;;;13.50;99.90;;;;;;5088867;28;20491;-75
2022/10/30 07:40:18;;;;;;;0.20;0.20;;;13.50;99.90;;;;;;5077318;28;20043;-75
2022/10/30 07:42:43;;;;;;;0.20;0.20;;;13.50;99.90;;;;;;5091964;28;20122;-74
2022/10/30 07:45:09;;;;;;;0.20;0.20;;;13.70;99.90;;;;;;5087316;28;20040;-74
2022/10/30 07:47:42;;;;;;;0.20;0.20;;;13.50;99.90;;;;;;5072092;28;20044;-74
2022/10/30 07:50:09;;;;;;;0.15;0.15;;;13.60;99.90;;;;;;5085353;28;20044;-73
2022/10/30 07:52:35;;;;;;;0.20;0.20;;;13.60;99.90;;;;;;5085975;28;20041;-74
2022/10/30 07:55:01;;;;;;;0.20;0.20;;;13.70;99.90;;;;;;5084475;28;20045;-75
2022/10/30 07:57:29;;;;;;;0.20;0.20;;;13.70;99.90;;;;;;5071983;28;20040;-74
2022/10/30 08:00:04;;;;;;;0.20;0.20;;;13.70;99.90;;;;;;5078086;28;20043;-75
2022/10/30 08:02:30;;;;;;;0.20;0.20;;;13.80;99.90;;;;;;5093256;28;20055;-74
2022/10/30 08:04:56;;;;;;;0.20;0.20;;;13.80;99.90;;;;;;5091201;28;20427;-75
2022/10/30 08:07:22;;;;;;;0.10;0.10;;;13.90;99.90;;;;;;5093409;28;20095;-74
2022/10/30 08:09:48;;;;;;;0.20;0.20;;;13.90;99.90;;;;;;5090582;28;20059;-75
2022/10/30 08:12:14;;;;;;;0.13;0.13;;;14.00;99.90;;;;;;5087055;28;20044;-75
2022/10/30 08:14:40;;;;;;;0.20;0.20;;;14.00;99.90;;;;;;5085259;28;20095;-75
2022/10/30 08:17:09;;;;;;;0.20;0.20;;;14.10;99.90;;;;;;5083759;28;20069;-75
2022/10/30 08:19:34;;;;;;;0.20;0.20;;;14.20;99.90;;;;;;5083301;28;20032;-75
2022/10/30 08:22:01;;;;;;;0.20;0.20;;;14.30;99.90;;;;;;5077155;28;20052;-77
2022/10/30 08:24:26;;;;;;;0.20;0.20;;;14.30;99.90;;;;;;5080471;28;20076;-75
2022/10/30 08:26:52;;;;;;;0.20;0.20;;;14.40;99.90;;;;;;5085539;28;20542;-76
2022/10/30 08:29:18;;;;;;;0.20;0.20;;;14.50;99.90;;;;;;5086722;28;20127;-72
2022/10/30 08:31:47;;;;;;;0.20;0.20;;;14.50;99.90;;;;;;5076046;28;20051;-74
2022/10/30 08:34:13;;;;;;;0.10;0.10;;;14.70;99.90;;;;;;5079811;28;20082;-75
2022/10/30 08:36:38;;;;;;;0.20;0.20;;;14.70;99.90;;;;;;5074162;28;20395;-75
2022/10/30 08:39:04;;;;;;;0.20;0.20;;;14.80;99.90;;;;;;5077688;28;20135;-74
2022/10/30 08:41:30;;;;;;;0.20;0.20;;;14.80;99.90;;;;;;5083553;28;20036;-75
2022/10/30 08:43:55;;;;;;;0.20;0.20;;;14.90;99.90;;;;;;5097670;28;20040;-75
2022/10/30 08:46:21;;;;;;;0.20;0.20;;;14.90;99.90;;;;;;5078619;28;20051;-76
2022/10/30 08:48:47;;;;;;;0.20;0.20;;;15.00;99.90;;;;;;5111163;27;20044;-76
2022/10/30 08:51:12;;;;;;;0.20;0.20;;;15.00;99.90;;;;;;5083752;28;20036;-76
2022/10/30 08:53:38;;;;;;;0.20;0.20;;;15.10;99.90;;;;;;5090367;28;20044;-76
2022/10/30 08:56:04;;;;;;;0.20;0.20;;;15.20;99.90;;;;;;5089619;28;20131;-76
2022/10/30 08:58:30;;;;;;;0.20;0.20;;;15.30;99.90;;;;;;5081377;28;20086;-75
2022/10/30 09:00:56;;;;;;;0.20;0.20;;;15.20;99.90;;;;;;5081326;28;20067;-75
2022/10/30 09:03:22;;;;;;;0.20;0.20;;;15.40;99.90;;;;;;5089227;28;20542;-76
2022/10/30 09:05:48;;;;;;;0.10;0.10;;;15.40;99.90;;;;;;5087377;28;20044;-76
2022/10/30 09:08:14;;;;;;;0.15;0.15;;;15.50;99.90;;;;;;5077384;28;20088;-76
2022/10/30 09:10:39;;;;;;;0.20;0.20;;;15.60;99.90;;;;;;5080148;28;20119;-74
2022/10/30 09:13:06;;;;;;;0.30;0.30;;;15.70;99.90;;;;;;5097290;28;20036;-76
2022/10/30 09:15:32;;;;;;;0.17;0.17;;;15.70;99.90;;;;;;5074612;28;20044;-77
2022/10/30 09:18:02;;;;;;;0.20;0.20;;;15.70;99.90;;;;;;5077259;28;20036;-75
2022/10/30 09:20:29;;;;;;;0.20;0.20;;;15.80;99.90;;;;;;5088228;28;20043;-75
2022/10/30 09:22:55;;;;;;;0.20;0.20;;;15.90;99.90;;;;;;5089153;28;20395;-75
2022/10/30 09:25:21;;;;;;;0.20;0.20;;;15.90;99.90;;;;;;5086101;28;20048;-75
2022/10/30 09:27:46;;;;;;;0.20;0.20;;;16.00;99.90;;;;;;5082417;28;20059;-76
2022/10/30 09:30:12;;;;;;;0.20;0.20;;;16.10;99.90;;;;;;5070642;28;20049;-75
2022/10/30 09:32:38;;;;;;;0.20;0.20;;;16.20;99.90;;;;;;5083023;28;20040;-76
2022/10/30 09:35:05;;;;;;;0.20;0.20;;;16.30;99.90;;;;;;5079891;28;20435;-75
2022/10/30 09:37:37;;;;;;;0.20;0.20;;;16.30;99.90;;;;;;5085793;28;20454;-75
2022/10/30 09:40:04;;;;;;;0.10;0.10;;;16.30;99.90;;;;;;5088162;28;20044;-75
2022/10/30 09:42:36;;;;;;;0.20;0.20;;;16.40;99.90;;;;;;5076716;28;20083;-75
2022/10/30 09:45:37;;;;;;;0.20;0.20;;;16.50;99.90;;;;;;5070238;28;20511;-76
2022/10/30 09:48:09;;;;;;;0.20;0.20;;;16.60;99.90;;;;;;5070655;28;20057;-75
2022/10/30 09:50:41;;;;;;;0.20;0.20;;;16.70;99.90;;;;;;5071456;28;20048;-75
2022/10/30 09:53:44;;;;;;;0.20;0.20;;;16.80;99.90;;;;;;5082104;28;20479;-76
2022/10/30 09:56:21;;;;;;;0.20;0.20;;;16.80;99.90;;;;;;5083966;28;20052;-74
2022/10/30 09:59:06;;;;;;;0.20;0.20;;;17.00;99.90;;;;;;5069229;28;20040;-77
2022/10/30 10:01:39;;;;;;;0.20;0.20;;;17.10;99.90;;;;;;5071139;28;20499;-77
2022/10/30 10:04:32;;;;;;;0.20;0.20;;;17.20;99.90;;;;;;5068016;28;20036;-77
2022/10/30 10:07:15;;;;;;;0.20;0.20;;;17.30;99.90;;;;;;5068910;28;20071;-78
2022/10/30 10:09:43;;;;;;;0.20;0.20;;;17.30;99.90;;;;;;5075891;28;20047;-78
2022/10/30 10:12:33;;;;;;;0.20;0.20;;;17.40;99.90;;;;;;5075808;28;20040;-77
2022/10/30 10:15:03;;;;;;;0.20;0.20;;;17.50;99.90;;;;;;5075742;28;20062;-77
2022/10/30 10:17:38;;;;;;;0.20;0.20;;;17.50;99.90;;;;;;5080808;28;20047;-78
2022/10/30 10:20:05;;;;;;;0.20;0.20;;;17.60;99.90;;;;;;5083937;28;20097;-76
2022/10/30 10:22:46;;;;;;;0.20;0.20;;;17.60;99.90;;;;;;5083644;28;20056;-77
2022/10/30 10:25:15;;;;;;;0.20;0.20;;;17.60;99.90;;;;;;5079821;28;20052;-77
2022/10/30 10:27:56;;;;;;;0.20;0.20;;;17.80;99.90;;;;;;5075227;28;20075;-78
2022/10/30 10:30:23;;;;;;;0.20;0.20;;;17.90;99.90;;;;;;5074666;28;20558;-77
2022/10/30 10:33:16;;;;;;;0.20;0.20;;;18.00;99.90;;;;;;5076620;28;20086;-78
2022/10/30 10:36:04;;;;;;;0.20;0.20;;;18.10;99.90;;;;;;5082698;28;20033;-76
2022/10/30 10:38:54;;;;;;;0.20;0.20;;;18.20;99.90;;;;;;5083853;28;20793;-77
2022/10/30 10:41:45;;;;;;;0.20;0.20;;;18.30;99.90;;;;;;5086816;28;20638;-77
2022/10/30 10:44:11;;;;;;;;;;;18.40;99.90;;;;;;5067782;28;20107;-77
2022/10/30 10:47:24;;;;;;;0.20;0.20;;;18.60;99.90;;;;;;5075512;28;19916;-77
2022/10/30 10:50:18;;;;;;;0.20;0.20;;;18.70;99.90;;;;;;5059020;28;20048;-80
2022/10/30 10:52:55;;;;;;;0.20;0.20;;;18.90;99.90;;;;;;5080115;28;20040;-80
2022/10/30 10:55:26;;;;;;;0.20;0.20;;;19.00;99.90;;;;;;5089346;28;20529;-78
2022/10/30 10:57:52;;;;;;;0.20;0.20;;;19.10;99.90;;;;;;5083798;28;20703;-79
2022/10/30 11:00:29;;;;;;;0.20;0.20;;;19.30;99.90;;;;;;5072721;28;20123;-79
2022/10/30 11:03:05;;;;;;;0.20;0.20;;;19.30;99.90;;;;;;5078724;28;20040;-79
2022/10/30 11:05:49;;;;;;;0.20;0.20;;;19.40;99.90;;;;;;5084971;28;20467;-80
2022/10/30 11:08:33;;;;;;;0.20;0.20;;;19.50;99.90;;;;;;5084457;28;20059;-78
2022/10/30 11:11:05;;;;;;;0.20;0.20;;;19.60;99.90;;;;;;5076747;28;20055;-78
2022/10/30 11:13:38;;;;;;;0.20;0.20;;;19.60;99.90;;;;;;5086913;28;20051;-78
2022/10/30 11:16:13;;;;;;;0.20;0.20;;;19.70;99.90;;;;;;5087838;28;20386;-79
2022/10/30 11:18:40;;;;;;;0.20;0.20;;;19.80;99.90;;;;;;5080993;28;20491;-77
2022/10/30 11:21:18;;;;;;;0.20;0.20;;;19.80;99.90;;;;;;5083207;28;20040;-78
2022/10/30 11:23:52;;;;;;;0.20;0.20;;;19.90;99.90;;;;;;5083075;28;20055;-77
2022/10/30 11:26:18;;;;;;;0.20;0.20;;;19.90;99.90;;;;;;5092090;28;20445;-79
2022/10/30 11:29:21;;;;;;;0.20;0.20;;;20.00;99.90;;;;;;5104380;28;20138;-79
2022/10/30 11:32:02;;;;;;;0.20;0.20;;;20.00;99.90;;;;;;5057058;28;20055;-76
2022/10/30 11:34:30;;;;;;;;;;;20.10;99.90;;;;;;5068135;28;20033;-75
2022/10/30 11:36:55;;;;;;;0.20;0.20;;;20.10;99.90;;;;;;5089210;28;19942;-77
2022/10/30 11:39:32;;;;;;;0.20;0.20;;;20.20;99.90;;;;;;5085852;28;20040;-76
2022/10/30 11:42:17;;;;;;;0.15;0.15;;;20.30;99.90;;;;;;5077714;28;20122;-76
2022/10/30 11:44:44;;;;;;;0.20;0.20;;;20.50;99.90;;;;;;5072538;28;20398;-77
2022/10/30 11:47:14;;;;;;;0.20;0.20;;;20.70;99.90;;;;;;5082733;28;20067;-76
2022/10/30 11:49:50;;;;;;;0.20;0.20;;;20.80;99.90;;;;;;5081711;28;20124;-77
2022/10/30 11:52:19;;;;;;;0.20;0.20;;;20.90;99.90;;;;;;5072716;28;20710;-77
2022/10/30 11:54:50;;;;;;;0.20;0.20;;;21.10;99.90;;;;;;5078297;28;20054;-76
2022/10/30 11:57:32;;;;;;;0.28;0.28;;;21.30;99.90;;;;;;5078829;28;20056;-76
2022/10/30 12:00:04;;;;;;;0.20;0.20;;;21.40;99.90;;;;;;5078746;28;20063;-75
2022/10/30 12:02:40;;;;;;;0.20;0.20;;;21.30;99.90;;;;;;5087749;28;20044;-77
2022/10/30 12:05:26;;;;;;;0.20;0.20;;;21.40;99.90;;;;;;5082275;28;20040;-75
2022/10/30 12:07:52;;;;;;;0.20;0.20;;;21.40;99.90;;;;;;5088996;28;20483;-76
2022/10/30 12:10:26;;;;;;;0.20;0.20;;;21.50;99.90;;;;;;5081488;28;20044;-76
2022/10/30 12:12:51;;;;;;;0.20;0.20;;;21.60;99.90;;;;;;5076324;28;20386;-77
2022/10/30 12:15:20;;;;;;;0.20;0.20;;;21.60;99.90;;;;;;5079762;28;20096;-76
2022/10/30 12:18:04;;;;;;;0.20;0.20;;;21.70;99.90;;;;;;5088935;28;20426;-78
2022/10/30 12:20:32;;;;;;;0.20;0.20;;;22.30;99.90;;;;;;5091031;28;20062;-76
2022/10/30 12:23:07;;;;;;;0.20;0.20;;;22.50;99.90;;;;;;5087457;28;20123;-77
2022/10/30 12:25:32;;;;;;;0.20;0.20;;;23.00;99.90;;;;;;5087856;28;20399;-78
2022/10/30 12:28:03;;;;;;;0.20;0.20;;;23.10;99.90;;;;;;5091990;28;20059;-77
2022/10/30 12:30:33;;;;;;;0.20;0.20;;;23.10;99.90;;;;;;5089298;28;20526;-77
2022/10/30 12:33:21;;;;;;;0.20;0.20;;;23.20;99.90;;;;;;5091421;28;20044;-78
2022/10/30 12:36:04;;;;;;;0.20;0.20;;;23.30;99.90;;;;;;5092556;28;20086;-77
2022/10/30 12:38:42;;;;;;;0.20;0.20;;;23.60;99.90;;;;;;5090650;28;20048;-77
2022/10/30 12:41:42;;;;;;;0.20;0.20;;;23.70;99.90;;;;;;5091928;28;20506;-78
2022/10/30 12:44:32;;;;;;;0.20;0.20;;;24.00;99.90;;;;;;5091159;28;20513;-77
2022/10/30 12:47:04;;;;;;;0.20;0.20;;;24.20;99.90;;;;;;5092451;28;20068;-77
2022/10/30 12:49:42;;;;;;;0.20;0.20;;;24.00;99.90;;;;;;5088208;28;20048;-78
2022/10/30 12:52:32;;;;;;;0.20;0.20;;;23.60;99.90;;;;;;5071904;28;20123;-77
2022/10/30 12:55:03;;;;;;;0.20;0.20;;;23.20;99.90;;;;;;5073351;28;20040;-77
2022/10/30 12:57:36;;;;;;;0.20;0.20;;;22.80;99.90;;;;;;5086147;28;20052;-78
2022/10/30 13:00:16;;;;;;;0.15;0.15;;;22.50;99.90;;;;;;5077768;28;20123;-78
2022/10/30 13:03:14;;;;;;;0.20;0.20;;;22.30;99.90;;;;;;5086632;28;20075;-78